Time;durP1;ratioP1;P1;durP2;ratioP2;P2;SDS_P1;SDS_P2;PMS_P1;PMS_P2;Temp;Humidity;BMP_temperature;BMP_pressure;BME280_temperature;BME280_humidity;BME280_pressure;Samples;Min_cycle;Max_cycle;Signal;HPM_P1;HPM_P2
2022/03/06 00:00:22;;;;;;;12.68;6.60;;;;;;;;;;5005707;28;20058;-79
2022/03/06 00:02:47;;;;;;;16.08;8.00;;;;;;;;;;4989509;28;20041;-78
2022/03/06 00:05:13;;;;;;;17.58;8.32;;;;;;;;;;4988265;28;20385;-79
2022/03/06 00:07:39;;;;;;;15.68;7.38;;;;;;;;;;5003032;28;20033;-79
2022/03/06 00:10:05;;;;;;;20.00;8.27;;;;;;;;;;4999299;28;20228;-78
2022/03/06 00:12:31;;;;;;;16.30;7.55;;;;;;;;;;5002434;28;20754;-80
2022/03/06 00:14:56;;;;;;;16.58;8.27;;;;;;;;;;4983211;28;20087;-80
2022/03/06 00:17:21;;;;;;;14.73;6.82;;;;;;;;;;4999731;28;20044;-80
2022/03/06 00:19:47;;;;;;;14.70;7.47;;;;;;;;;;5001305;28;20034;-80
2022/03/06 00:22:12;;;;;;;18.45;7.63;;;;;;;;;;4995960;28;20452;-80
2022/03/06 00:24:37;;;;;;;18.17;7.63;;;;;;;;;;4993905;28;20040;-80
2022/03/06 00:27:03;;;;;;;17.65;7.63;;;;;;;;;;5001514;28;20026;-79
2022/03/06 00:29:29;;;;;;;12.15;6.65;;;;;;;;;;5016386;28;20022;-80
2022/03/06 00:31:54;;;;;;;19.63;8.32;;;;;;;;;;5019390;28;20057;-81
2022/03/06 00:34:19;;;;;;;13.75;7.07;;;;;;;;;;5009802;28;20041;-79
2022/03/06 00:36:45;;;;;;;14.73;7.78;;;;;;;;;;5024566;28;20330;-79
2022/03/06 00:39:10;;;;;;;17.90;8.18;;;;;;;;;;4999963;28;20625;-80
2022/03/06 00:41:36;;;;;;;20.73;7.93;;;;;;;;;;5005938;28;20810;-80
2022/03/06 00:44:02;;;;;;;14.88;8.07;;;;;;;;;;4996750;28;20030;-80
2022/03/06 00:46:27;;;;;;;18.38;8.65;;;;;;;;;;5000736;28;20611;-81
2022/03/06 00:48:53;;;;;;;16.10;7.63;;;;;;;;;;4999747;28;20041;-79
2022/03/06 00:51:18;;;;;;;24.60;9.45;;;;;;;;;;5001539;28;20769;-79
2022/03/06 00:53:44;;;;;;;17.15;9.18;;;;;;;;;;4989652;28;20034;-80
2022/03/06 00:56:10;;;;;;;19.70;7.88;;;;;;;;;;4980354;28;20405;-80
2022/03/06 00:58:37;;;;;;;17.33;7.65;;;;;;;;;;4992973;28;20486;-81
2022/03/06 01:01:04;;;;;;;15.18;7.80;;;;;;;;;;4995841;28;20058;-80
2022/03/06 01:03:30;;;;;;;13.70;7.15;;;;;;;;;;4999261;28;20443;-80
2022/03/06 01:05:55;;;;;;;22.13;8.50;;;;;;;;;;5009288;28;20042;-78
2022/03/06 01:08:21;;;;;;;16.10;8.00;;;;;;;;;;5007491;28;20050;-82
2022/03/06 01:10:48;;;;;;;17.17;8.13;;;;;;;;;;5008822;28;20021;-80
2022/03/06 01:13:14;;;;;;;23.08;9.45;;;;;;;;;;5016380;28;20060;-78
2022/03/06 01:15:39;;;;;;;17.27;8.27;;;;;;;;;;5019038;28;20094;-79
2022/03/06 01:18:06;;;;;;;17.40;8.07;;;;;;;;;;4990430;28;20038;-80
2022/03/06 01:20:32;;;;;;;15.63;8.73;;;;;;;;;;4993664;28;20030;-78
2022/03/06 01:22:58;;;;;;;17.35;8.15;;;;;;;;;;4999336;28;20038;-79
2022/03/06 01:25:23;;;;;;;16.52;7.80;;;;;;;;;;4995705;28;20057;-79
2022/03/06 01:27:49;;;;;;;18.05;8.15;;;;;;;;;;5001390;28;20028;-77
2022/03/06 01:30:15;;;;;;;14.43;7.60;;;;;;;;;;4991131;28;20033;-78
2022/03/06 01:32:41;;;;;;;14.45;7.68;;;;;;;;;;4998276;28;20027;-78
2022/03/06 01:35:07;;;;;;;15.90;7.80;;;;;;;;;;5002463;28;20434;-79
2022/03/06 01:37:33;;;;;;;15.68;7.68;;;;;;;;;;5002154;28;20026;-79
2022/03/06 01:39:59;;;;;;;16.75;8.63;;;;;;;;;;4989760;28;20061;-79
2022/03/06 01:42:24;;;;;;;15.93;8.02;;;;;;;;;;4993003;28;20078;-79
2022/03/06 01:44:50;;;;;;;15.57;8.77;;;;;;;;;;4993388;28;20026;-78
2022/03/06 01:47:33;;;;;;;12.90;7.28;;;;;;;;;;4979139;28;20470;-79
2022/03/06 01:49:59;;;;;;;14.88;7.35;;;;;;;;;;4984788;28;20119;-78
2022/03/06 01:52:24;;;;;;;15.95;7.55;;;;;;;;;;4992820;28;20026;-78
2022/03/06 01:54:50;;;;;;;14.57;7.60;;;;;;;;;;4996763;28;20054;-79
2022/03/06 01:57:15;;;;;;;14.60;7.68;;;;;;;;;;4994537;28;20386;-78
2022/03/06 01:59:40;;;;;;;15.55;7.55;;;;;;;;;;4999611;28;20061;-78
2022/03/06 02:02:06;;;;;;;14.98;7.63;;;;;;;;;;4982269;28;20036;-79
2022/03/06 02:04:31;;;;;;;13.20;7.75;;;;;;;;;;4993180;28;20042;-79
2022/03/06 02:06:57;;;;;;;14.25;7.18;;;;;;;;;;4993810;28;20109;-80
2022/03/06 02:09:22;;;;;;;15.10;7.15;;;;;;;;;;4999397;28;20034;-80
2022/03/06 02:12:20;;;;;;;21.23;8.45;;;;;;;;;;5008564;28;20093;-79
2022/03/06 02:14:33;;;;;;;14.10;6.78;;;;;;;;;;4998198;28;20057;-80
2022/03/06 02:16:58;;;;;;;13.55;6.80;;;;;;;;;;4994298;28;20413;-79
2022/03/06 02:19:23;;;;;;;17.75;7.75;;;;;;;;;;4988591;28;20038;-79
2022/03/06 02:21:49;;;;;;;15.68;7.35;;;;;;;;;;4992971;28;20114;-78
2022/03/06 02:24:14;;;;;;;14.02;7.00;;;;;;;;;;4997123;28;20114;-78
2022/03/06 02:26:40;;;;;;;14.75;7.15;;;;;;;;;;4979559;28;20034;-77
2022/03/06 02:29:05;;;;;;;17.90;7.50;;;;;;;;;;5003458;28;20021;-78
2022/03/06 02:31:30;;;;;;;17.98;7.97;;;;;;;;;;5002683;28;20092;-78
2022/03/06 02:33:56;;;;;;;14.77;6.78;;;;;;;;;;4998807;28;20034;-79
2022/03/06 02:36:21;;;;;;;15.18;6.90;;;;;;;;;;5004843;28;20026;-78
2022/03/06 02:38:49;;;;;;;18.42;7.97;;;;;;;;;;4992003;28;20042;-79
2022/03/06 02:41:14;;;;;;;13.05;7.03;;;;;;;;;;4994693;28;20374;-79
2022/03/06 02:43:40;;;;;;;15.25;7.63;;;;;;;;;;4996127;28;20084;-78
2022/03/06 02:46:05;;;;;;;14.43;6.82;;;;;;;;;;5007449;28;20514;-78
2022/03/06 02:48:31;;;;;;;15.02;6.57;;;;;;;;;;4975504;28;20104;-78
2022/03/06 02:50:56;;;;;;;15.20;7.85;;;;;;;;;;4983890;28;20038;-79
2022/03/06 02:53:23;;;;;;;13.15;7.13;;;;;;;;;;5008757;28;20026;-79
2022/03/06 02:55:48;;;;;;;16.02;8.13;;;;;;;;;;5010761;28;20108;-79
2022/03/06 02:58:14;;;;;;;19.65;7.63;;;;;;;;;;4991757;28;20408;-79
2022/03/06 03:00:39;;;;;;;20.02;7.97;;;;;;;;;;4966709;28;20022;-78
2022/03/06 03:03:05;;;;;;;17.17;7.95;;;;;;;;;;4990490;28;20054;-79
2022/03/06 03:05:30;;;;;;;14.02;7.53;;;;;;;;;;5010235;28;20036;-79
2022/03/06 03:07:55;;;;;;;13.07;7.85;;;;;;;;;;4999062;28;20030;-79
2022/03/06 03:10:22;;;;;;;15.55;8.27;;;;;;;;;;4982682;28;20388;-78
2022/03/06 03:12:48;;;;;;;17.55;7.60;;;;;;;;;;5014352;28;20030;-79
2022/03/06 03:15:15;;;;;;;17.30;8.35;;;;;;;;;;4997276;28;20049;-78
2022/03/06 03:17:41;;;;;;;15.85;7.18;;;;;;;;;;4995771;28;20022;-78
2022/03/06 03:20:08;;;;;;;17.25;8.02;;;;;;;;;;4981458;28;20042;-79
2022/03/06 03:22:33;;;;;;;13.52;6.70;;;;;;;;;;4994809;28;20035;-79
2022/03/06 03:24:58;;;;;;;16.77;8.07;;;;;;;;;;5001820;28;20034;-79
2022/03/06 03:27:24;;;;;;;14.30;7.60;;;;;;;;;;5000814;28;20046;-80
2022/03/06 03:29:49;;;;;;;15.82;7.68;;;;;;;;;;4986694;28;20085;-80
2022/03/06 03:32:15;;;;;;;16.38;7.93;;;;;;;;;;4989354;28;20022;-78
2022/03/06 03:34:40;;;;;;;17.23;7.05;;;;;;;;;;4969098;28;20086;-79
2022/03/06 03:37:06;;;;;;;13.27;6.88;;;;;;;;;;4992986;28;20386;-79
2022/03/06 03:39:31;;;;;;;17.05;8.13;;;;;;;;;;4985875;28;20371;-79
2022/03/06 03:41:57;;;;;;;19.08;7.88;;;;;;;;;;4969774;28;20022;-78
2022/03/06 03:44:22;;;;;;;15.15;7.32;;;;;;;;;;4996866;28;20066;-79
2022/03/06 03:46:48;;;;;;;16.88;7.13;;;;;;;;;;4994978;28;20038;-78
2022/03/06 03:49:14;;;;;;;16.98;7.50;;;;;;;;;;4985572;28;20018;-79
2022/03/06 03:51:40;;;;;;;14.20;7.72;;;;;;;;;;4992297;28;20029;-79
2022/03/06 03:54:06;;;;;;;21.25;8.20;;;;;;;;;;4990475;28;20393;-79
2022/03/06 03:56:31;;;;;;;13.27;7.43;;;;;;;;;;4997038;28;20026;-79
2022/03/06 03:58:57;;;;;;;15.60;7.30;;;;;;;;;;4992846;28;20030;-79
2022/03/06 04:01:22;;;;;;;14.05;7.28;;;;;;;;;;4981534;28;20026;-78
2022/03/06 04:03:47;;;;;;;15.18;7.30;;;;;;;;;;4989685;28;20066;-78
2022/03/06 04:06:13;;;;;;;15.25;7.15;;;;;;;;;;4996295;28;20019;-78
2022/03/06 04:08:39;;;;;;;12.75;6.57;;;;;;;;;;4986869;28;20031;-78
2022/03/06 04:11:05;;;;;;;17.48;7.45;;;;;;;;;;4979243;28;20069;-78
2022/03/06 04:13:30;;;;;;;17.23;7.70;;;;;;;;;;4988819;28;20030;-78
2022/03/06 04:15:56;;;;;;;17.10;8.23;;;;;;;;;;5000328;28;20058;-78
2022/03/06 04:18:21;;;;;;;13.77;7.25;;;;;;;;;;4990666;28;20129;-78
2022/03/06 04:20:47;;;;;;;12.30;7.22;;;;;;;;;;4978658;28;20038;-79
2022/03/06 04:23:12;;;;;;;15.40;8.10;;;;;;;;;;4990053;28;20390;-79
2022/03/06 04:25:38;;;;;;;18.23;7.75;;;;;;;;;;4997381;28;20027;-79
2022/03/06 04:28:03;;;;;;;14.65;7.20;;;;;;;;;;4994150;28;20080;-78
2022/03/06 04:30:30;;;;;;;15.40;7.57;;;;;;;;;;4995237;28;20030;-78
2022/03/06 04:32:55;;;;;;;14.98;7.95;;;;;;;;;;5004366;28;20010;-78
2022/03/06 04:35:21;;;;;;;19.45;7.25;;;;;;;;;;5011166;28;20032;-79
2022/03/06 04:37:47;;;;;;;15.85;7.97;;;;;;;;;;5007712;28;20038;-78
2022/03/06 04:40:13;;;;;;;17.02;7.15;;;;;;;;;;4998288;28;20026;-78
2022/03/06 04:42:39;;;;;;;15.20;7.47;;;;;;;;;;4993605;28;20105;-78
2022/03/06 04:45:05;;;;;;;16.20;7.22;;;;;;;;;;4993912;28;20527;-78
2022/03/06 04:47:31;;;;;;;13.77;7.13;;;;;;;;;;5007273;28;20026;-78
2022/03/06 04:49:56;;;;;;;17.90;8.27;;;;;;;;;;4982825;28;20019;-78
2022/03/06 04:52:22;;;;;;;14.25;7.63;;;;;;;;;;4985904;28;20053;-79
2022/03/06 04:54:47;;;;;;;18.23;7.78;;;;;;;;;;4991990;28;20504;-79
2022/03/06 04:57:14;;;;;;;14.23;7.25;;;;;;;;;;4992371;28;20045;-80
2022/03/06 04:59:39;;;;;;;14.88;7.32;;;;;;;;;;4982292;28;20114;-79
2022/03/06 05:02:04;;;;;;;17.67;7.63;;;;;;;;;;4987818;28;20057;-79
2022/03/06 05:04:30;;;;;;;16.85;8.68;;;;;;;;;;4989523;28;20101;-79
2022/03/06 05:06:55;;;;;;;15.70;7.75;;;;;;;;;;4991669;28;20049;-79
2022/03/06 05:09:21;;;;;;;13.23;6.43;;;;;;;;;;4993814;28;20058;-79
2022/03/06 05:11:46;;;;;;;15.23;7.35;;;;;;;;;;4995684;28;20029;-79
2022/03/06 05:14:11;;;;;;;17.25;7.85;;;;;;;;;;4995422;28;20033;-79
2022/03/06 05:16:37;;;;;;;14.95;7.63;;;;;;;;;;4997035;28;20501;-79
2022/03/06 05:19:02;;;;;;;12.88;6.95;;;;;;;;;;4988213;28;20602;-80
2022/03/06 05:21:27;;;;;;;18.27;8.35;;;;;;;;;;4982751;28;20026;-79
2022/03/06 05:23:53;;;;;;;16.80;7.60;;;;;;;;;;4989760;28;20499;-79
2022/03/06 05:26:18;;;;;;;15.60;7.68;;;;;;;;;;4996656;28;20084;-79
2022/03/06 05:28:44;;;;;;;19.13;8.52;;;;;;;;;;4994333;28;20030;-79
2022/03/06 05:31:09;;;;;;;17.80;8.63;;;;;;;;;;4980382;28;20030;-79
2022/03/06 05:33:35;;;;;;;18.13;8.40;;;;;;;;;;4989949;28;20033;-79
2022/03/06 05:36:00;;;;;;;16.63;7.93;;;;;;;;;;4997449;28;20033;-79
2022/03/06 05:38:26;;;;;;;14.35;7.35;;;;;;;;;;4989562;28;20030;-77
2022/03/06 05:40:51;;;;;;;16.92;7.85;;;;;;;;;;4987098;28;20101;-79
2022/03/06 05:43:17;;;;;;;16.80;7.60;;;;;;;;;;4996184;28;20034;-78
2022/03/06 05:45:42;;;;;;;16.85;7.90;;;;;;;;;;5009142;28;20073;-78
2022/03/06 05:48:08;;;;;;;17.95;7.43;;;;;;;;;;4993177;28;20030;-78
2022/03/06 05:50:34;;;;;;;19.15;8.88;;;;;;;;;;4985440;28;20421;-78
2022/03/06 05:52:59;;;;;;;15.02;8.00;;;;;;;;;;4993089;28;20489;-77
2022/03/06 05:55:25;;;;;;;16.77;8.57;;;;;;;;;;4993371;28;20033;-78
2022/03/06 05:57:50;;;;;;;18.92;8.27;;;;;;;;;;4996842;28;20033;-78
2022/03/06 06:00:17;;;;;;;18.67;9.60;;;;;;;;;;4989815;28;20034;-77
2022/03/06 06:02:43;;;;;;;14.60;7.30;;;;;;;;;;4992692;28;20540;-79
2022/03/06 06:05:09;;;;;;;12.93;7.07;;;;;;;;;;4992655;28;20034;-78
2022/03/06 06:07:35;;;;;;;15.43;7.95;;;;;;;;;;4989971;28;20036;-78
2022/03/06 06:10:02;;;;;;;17.23;8.27;;;;;;;;;;4981985;28;20031;-78
2022/03/06 06:12:28;;;;;;;14.68;7.68;;;;;;;;;;4983744;28;20034;-78
2022/03/06 06:14:53;;;;;;;16.05;8.43;;;;;;;;;;4972727;28;20469;-78
2022/03/06 06:17:19;;;;;;;14.93;8.00;;;;;;;;;;5001652;28;20451;-79
2022/03/06 06:19:44;;;;;;;19.08;9.32;;;;;;;;;;4968933;28;20026;-80
2022/03/06 06:22:10;;;;;;;18.63;8.88;;;;;;;;;;4997464;28;20076;-79
2022/03/06 06:24:35;;;;;;;16.35;7.95;;;;;;;;;;4982243;28;20076;-79
2022/03/06 06:27:01;;;;;;;16.67;8.15;;;;;;;;;;5007797;28;20026;-79
2022/03/06 06:29:26;;;;;;;15.05;8.57;;;;;;;;;;4995402;28;20027;-79
2022/03/06 06:31:52;;;;;;;17.05;7.90;;;;;;;;;;4987171;28;20108;-79
2022/03/06 06:34:18;;;;;;;17.80;8.32;;;;;;;;;;4969271;28;20037;-79
2022/03/06 06:36:44;;;;;;;17.13;8.25;;;;;;;;;;4975576;28;20030;-80
2022/03/06 06:39:09;;;;;;;17.52;9.25;;;;;;;;;;4996046;28;20554;-82
2022/03/06 06:41:39;;;;;;;17.00;8.63;;;;;;;;;;4986917;28;20030;-79
2022/03/06 06:44:06;;;;;;;14.75;8.15;;;;;;;;;;4999902;28;20057;-79
2022/03/06 06:46:31;;;;;;;19.55;9.30;;;;;;;;;;4998531;28;20030;-78
2022/03/06 06:48:57;;;;;;;16.33;8.32;;;;;;;;;;4988255;28;20119;-79
2022/03/06 06:51:22;;;;;;;16.15;8.95;;;;;;;;;;4984941;28;20393;-79
2022/03/06 06:53:48;;;;;;;14.40;8.10;;;;;;;;;;4993117;28;20062;-78
2022/03/06 06:56:13;;;;;;;19.52;10.05;;;;;;;;;;4998993;28;20370;-78
2022/03/06 06:58:39;;;;;;;16.50;7.63;;;;;;;;;;5001659;28;20054;-79
2022/03/06 07:01:04;;;;;;;17.35;7.90;;;;;;;;;;4984690;28;20022;-79
2022/03/06 07:03:30;;;;;;;17.23;8.82;;;;;;;;;;5002207;28;20029;-79
2022/03/06 07:05:57;;;;;;;18.17;8.55;;;;;;;;;;5003503;28;20440;-79
2022/03/06 07:08:22;;;;;;;18.13;9.30;;;;;;;;;;4996067;28;20054;-79
2022/03/06 07:10:48;;;;;;;16.90;8.50;;;;;;;;;;4982412;28;20027;-80
2022/03/06 07:13:13;;;;;;;16.48;8.05;;;;;;;;;;4997070;28;20053;-79
2022/03/06 07:15:38;;;;;;;16.52;9.07;;;;;;;;;;5019978;28;20408;-79
2022/03/06 07:18:04;;;;;;;15.30;8.63;;;;;;;;;;4980989;28;20025;-79
2022/03/06 07:20:30;;;;;;;13.30;8.40;;;;;;;;;;4989784;28;20031;-79
2022/03/06 07:22:55;;;;;;;15.27;8.32;;;;;;;;;;5004499;28;20042;-78
2022/03/06 07:25:21;;;;;;;16.98;9.02;;;;;;;;;;5010116;28;20022;-80
2022/03/06 07:27:47;;;;;;;16.48;9.45;;;;;;;;;;5008847;28;20121;-80
2022/03/06 07:30:13;;;;;;;18.48;9.65;;;;;;;;;;4987526;28;20049;-80
2022/03/06 07:32:46;;;;;;;15.35;8.63;;;;;;;;;;4990557;28;20072;-79
2022/03/06 07:35:13;;;;;;;16.02;9.23;;;;;;;;;;4982411;28;20119;-80
2022/03/06 07:37:39;;;;;;;15.30;8.68;;;;;;;;;;5000601;28;20026;-80
2022/03/06 07:40:06;;;;;;;17.63;9.60;;;;;;;;;;4983344;28;20122;-79
2022/03/06 07:42:31;;;;;;;13.98;8.63;;;;;;;;;;4992561;28;20033;-81
2022/03/06 07:44:57;;;;;;;19.42;10.00;;;;;;;;;;4977011;28;20031;-80
2022/03/06 07:47:23;;;;;;;16.80;9.05;;;;;;;;;;4994075;28;20032;-80
2022/03/06 07:49:48;;;;;;;12.48;7.78;;;;;;;;;;4983843;28;20030;-80
2022/03/06 07:52:14;;;;;;;18.35;9.50;;;;;;;;;;4999507;28;20485;-80
2022/03/06 07:54:39;;;;;;;17.35;8.60;;;;;;;;;;4994380;28;20030;-80
2022/03/06 07:57:04;;;;;;;15.30;9.05;;;;;;;;;;5009622;28;20023;-80
2022/03/06 07:59:30;;;;;;;12.18;8.18;;;;;;;;;;4990600;28;20296;-80
2022/03/06 08:01:55;;;;;;;17.00;8.98;;;;;;;;;;4992190;28;20030;-81
2022/03/06 08:04:21;;;;;;;16.27;8.85;;;;;;;;;;5005685;28;20030;-80
2022/03/06 08:06:47;;;;;;;14.13;8.00;;;;;;;;;;4974165;28;20026;-80
2022/03/06 08:09:13;;;;;;;16.98;9.60;;;;;;;;;;4978895;28;20029;-80
2022/03/06 08:11:41;;;;;;;14.77;8.63;;;;;;;;;;4971407;28;20026;-80
2022/03/06 08:14:07;;;;;;;15.43;9.30;;;;;;;;;;5002063;28;20033;-80
2022/03/06 08:16:32;;;;;;;15.00;9.13;;;;;;;;;;4997220;28;20037;-79
2022/03/06 08:18:57;;;;;;;12.73;8.77;;;;;;;;;;4976159;28;20034;-77
2022/03/06 08:21:23;;;;;;;17.30;8.98;;;;;;;;;;4974566;28;20026;-81
2022/03/06 08:23:50;;;;;;;14.85;7.70;;;;;;;;;;5006195;28;20387;-78
2022/03/06 08:26:15;;;;;;;14.07;8.63;;;;;;;;;;4993156;28;20018;-78
2022/03/06 08:28:41;;;;;;;17.73;8.95;;;;;;;;;;4980624;28;20033;-79
2022/03/06 08:31:06;;;;;;;14.57;9.10;;;;;;;;;;4993377;28;20030;-79
2022/03/06 08:33:32;;;;;;;14.38;8.18;;;;;;;;;;4998153;28;20384;-79
2022/03/06 08:35:58;;;;;;;17.95;9.23;;;;;;;;;;4982254;28;20049;-80
2022/03/06 08:38:23;;;;;;;17.27;8.15;;;;;;;;;;5000831;28;20034;-79
2022/03/06 08:40:48;;;;;;;15.20;8.70;;;;;;;;;;4995180;28;20402;-80
2022/03/06 08:43:14;;;;;;;15.40;8.40;;;;;;;;;;4999951;28;20381;-79
2022/03/06 08:45:39;;;;;;;14.43;8.60;;;;;;;;;;5013072;28;20386;-79
2022/03/06 08:48:05;;;;;;;15.23;8.82;;;;;;;;;;5002502;28;20033;-81
2022/03/06 08:50:30;;;;;;;16.88;8.75;;;;;;;;;;4979662;28;20086;-83
2022/03/06 08:52:55;;;;;;;17.17;8.80;;;;;;;;;;4999049;28;20037;-80
2022/03/06 08:55:21;;;;;;;16.48;8.73;;;;;;;;;;4999067;28;20057;-80
2022/03/06 08:57:46;;;;;;;14.93;8.25;;;;;;;;;;5011381;28;20022;-81
2022/03/06 09:00:12;;;;;;;13.57;8.48;;;;;;;;;;4988370;28;20034;-84
2022/03/06 09:02:37;;;;;;;15.02;8.48;;;;;;;;;;4983507;28;20110;-79
2022/03/06 09:05:03;;;;;;;17.02;8.70;;;;;;;;;;5018244;28;20480;-79
2022/03/06 09:07:29;;;;;;;15.60;9.30;;;;;;;;;;4997919;28;20558;-78
2022/03/06 09:09:54;;;;;;;13.60;8.18;;;;;;;;;;4997757;28;20096;-79
2022/03/06 09:12:21;;;;;;;13.85;8.05;;;;;;;;;;4995600;28;20142;-79
2022/03/06 09:14:46;;;;;;;18.15;8.57;;;;;;;;;;4992733;28;20054;-81
2022/03/06 09:17:12;;;;;;;13.75;7.30;;;;;;;;;;4997503;28;20021;-80
2022/03/06 09:19:37;;;;;;;15.35;8.50;;;;;;;;;;4991206;28;20023;-79
2022/03/06 09:22:03;;;;;;;14.73;7.10;;;;;;;;;;5008900;28;20597;-79
2022/03/06 09:24:29;;;;;;;12.57;7.50;;;;;;;;;;5013627;28;20472;-80
2022/03/06 09:26:54;;;;;;;17.33;8.65;;;;;;;;;;5009773;28;20026;-80
2022/03/06 09:29:19;;;;;;;14.38;8.13;;;;;;;;;;4989829;28;20543;-80
2022/03/06 09:31:45;;;;;;;16.88;8.68;;;;;;;;;;4996496;28;20101;-80
2022/03/06 09:34:10;;;;;;;18.85;8.65;;;;;;;;;;5005255;28;20649;-79
2022/03/06 09:36:36;;;;;;;19.23;9.15;;;;;;;;;;4982728;28;20069;-81
2022/03/06 09:39:03;;;;;;;17.05;8.68;;;;;;;;;;4988337;28;20038;-81
2022/03/06 09:41:29;;;;;;;16.38;8.27;;;;;;;;;;5004759;28;20525;-80
2022/03/06 09:43:56;;;;;;;17.30;8.63;;;;;;;;;;4991377;28;20046;-81
2022/03/06 09:46:22;;;;;;;18.48;8.45;;;;;;;;;;5010423;28;20439;-80
2022/03/06 09:48:49;;;;;;;17.13;8.82;;;;;;;;;;4977811;28;20122;-80
2022/03/06 09:51:15;;;;;;;14.18;6.57;;;;;;;;;;5004966;28;20645;-83
2022/03/06 09:53:40;;;;;;;17.58;8.05;;;;;;;;;;4987674;28;20050;-81
2022/03/06 09:56:06;;;;;;;15.95;7.85;;;;;;;;;;4984334;28;20030;-81
2022/03/06 09:58:32;;;;;;;13.45;7.57;;;;;;;;;;4992260;28;20172;-79
2022/03/06 10:00:57;;;;;;;15.25;8.20;;;;;;;;;;4989275;28;20027;-80
2022/03/06 10:03:24;;;;;;;15.07;8.13;;;;;;;;;;4998974;28;20033;-81
2022/03/06 10:05:50;;;;;;;14.40;7.95;;;;;;;;;;5012160;28;20030;-81
2022/03/06 10:08:23;;;;;;;15.13;8.18;;;;;;;;;;4997893;28;20528;-79
2022/03/06 10:10:53;;;;;;;16.45;8.65;;;;;;;;;;4988597;28;20049;-80
2022/03/06 10:13:31;;;;;;;18.00;9.02;;;;;;;;;;4972044;28;20036;-80
2022/03/06 10:16:14;;;;;;;17.25;9.07;;;;;;;;;;4990792;28;20030;-82
2022/03/06 10:18:45;;;;;;;13.80;7.40;;;;;;;;;;4982265;28;20370;-82
2022/03/06 10:21:14;;;;;;;18.90;8.70;;;;;;;;;;4987416;28;20053;-82
2022/03/06 10:23:40;;;;;;;18.20;9.00;;;;;;;;;;4981179;28;20291;-81
2022/03/06 10:26:08;;;;;;;17.83;8.30;;;;;;;;;;5006865;28;20022;-84
2022/03/06 10:28:42;;;;;;;20.63;8.23;;;;;;;;;;4990679;28;20074;-82
2022/03/06 10:31:08;;;;;;;13.65;8.05;;;;;;;;;;4981068;28;20026;-81
2022/03/06 10:33:33;;;;;;;13.50;7.82;;;;;;;;;;4995606;28;20037;-82
2022/03/06 10:36:01;;;;;;;16.80;9.55;;;;;;;;;;4995220;28;20382;-82
2022/03/06 10:38:30;;;;;;;15.88;8.45;;;;;;;;;;5005553;28;20038;-83
2022/03/06 10:41:17;;;;;;;16.02;8.15;;;;;;;;;;5006415;28;20048;-82
2022/03/06 10:43:43;;;;;;;15.32;8.27;;;;;;;;;;4995810;28;20037;-85
2022/03/06 10:46:13;;;;;;;15.23;7.45;;;;;;;;;;5010527;28;20110;-83
2022/03/06 10:48:40;;;;;;;15.13;8.23;;;;;;;;;;4970693;28;20026;-82
2022/03/06 10:51:09;;;;;;;16.05;7.60;;;;;;;;;;4997208;28;20031;-82
2022/03/06 10:53:35;;;;;;;14.48;8.07;;;;;;;;;;4992690;28;20535;-81
2022/03/06 10:56:14;;;;;;;14.73;7.43;;;;;;;;;;4997374;28;20030;-83
2022/03/06 10:58:42;;;;;;;17.80;8.43;;;;;;;;;;4998861;28;20031;-83
2022/03/06 11:01:07;;;;;;;14.73;7.80;;;;;;;;;;5000019;28;20036;-82
2022/03/06 11:03:37;;;;;;;13.32;6.82;;;;;;;;;;4999509;28;20120;-83
2022/03/06 11:06:07;;;;;;;10.80;5.75;;;;;;;;;;5010184;28;20026;-83
2022/03/06 11:08:34;;;;;;;12.05;6.35;;;;;;;;;;5018659;28;20512;-83
2022/03/06 11:11:00;;;;;;;13.30;7.32;;;;;;;;;;4986386;28;20058;-83
2022/03/06 11:13:27;;;;;;;13.73;7.32;;;;;;;;;;4991754;28;20537;-83
2022/03/06 11:15:53;;;;;;;23.17;6.97;;;;;;;;;;5004714;28;20104;-84
2022/03/06 11:18:28;;;;;;;12.68;7.32;;;;;;;;;;5002875;28;20054;-83
2022/03/06 11:20:56;;;;;;;11.90;6.53;;;;;;;;;;4996291;28;20047;-83
2022/03/06 11:23:43;;;;;;;12.88;6.55;;;;;;;;;;5004560;28;20026;-83
2022/03/06 11:26:17;;;;;;;13.27;6.35;;;;;;;;;;4996615;28;20402;-83
2022/03/06 11:29:04;;;;;;;10.40;5.88;;;;;;;;;;5004241;28;20473;-83
2022/03/06 11:31:56;;;;;;;10.38;6.53;;;;;;;;;;5019175;28;20398;-88
2022/03/06 11:34:29;;;;;;;9.50;5.50;;;;;;;;;;4976661;28;20015;-80
2022/03/06 11:36:56;;;;;;;11.90;6.20;;;;;;;;;;4996618;28;20021;-80
2022/03/06 11:39:30;;;;;;;9.70;5.60;;;;;;;;;;4996080;28;20049;-80
2022/03/06 11:42:03;;;;;;;8.77;5.15;;;;;;;;;;4992672;28;20035;-79
2022/03/06 11:44:38;;;;;;;12.63;6.75;;;;;;;;;;4989705;28;20046;-78
2022/03/06 11:47:13;;;;;;;11.20;6.53;;;;;;;;;;4992002;28;20034;-80
2022/03/06 11:49:41;;;;;;;10.40;6.30;;;;;;;;;;4989370;28;20078;-79
2022/03/06 11:52:25;;;;;;;12.10;5.88;;;;;;;;;;4998429;28;20040;-78
2022/03/06 11:54:50;;;;;;;13.32;7.15;;;;;;;;;;5013517;28;20102;-79
2022/03/06 11:57:38;;;;;;;9.43;6.05;;;;;;;;;;4987254;28;20034;-79
2022/03/06 12:00:17;;;;;;;11.93;6.72;;;;;;;;;;4987162;28;20022;-79
2022/03/06 12:02:58;;;;;;;13.25;6.53;;;;;;;;;;5014576;28;20022;-80
2022/03/06 12:05:44;;;;;;;14.68;6.38;;;;;;;;;;5008552;28;20060;-80
2022/03/06 12:08:11;;;;;;;10.88;6.45;;;;;;;;;;5022522;28;20125;-80
2022/03/06 12:10:39;;;;;;;10.10;6.35;;;;;;;;;;4990603;28;20116;-79
2022/03/06 12:13:16;;;;;;;12.82;6.25;;;;;;;;;;5012980;28;20018;-84
2022/03/06 12:15:41;;;;;;;11.88;6.45;;;;;;;;;;4987110;28;20032;-80
2022/03/06 12:18:16;;;;;;;22.77;6.95;;;;;;;;;;4977944;28;20019;-79
2022/03/06 12:20:43;;;;;;;9.57;4.57;;;;;;;;;;5003825;28;20034;-82
2022/03/06 12:23:20;;;;;;;10.88;6.10;;;;;;;;;;5014813;28;20038;-79
2022/03/06 12:25:54;;;;;;;9.95;6.07;;;;;;;;;;4996986;28;20037;-79
2022/03/06 12:28:21;;;;;;;10.20;6.53;;;;;;;;;;4984604;28;20121;-80
2022/03/06 12:30:47;;;;;;;11.23;5.68;;;;;;;;;;5015721;28;20548;-80
2022/03/06 12:33:34;;;;;;;8.93;5.78;;;;;;;;;;5017292;28;20018;-79
2022/03/06 12:36:18;;;;;;;9.90;6.45;;;;;;;;;;5003152;28;20033;-80
2022/03/06 12:38:44;;;;;;;10.60;6.00;;;;;;;;;;4999068;28;20042;-79
2022/03/06 12:41:10;;;;;;;11.13;6.05;;;;;;;;;;4980419;28;20030;-81
2022/03/06 12:43:46;;;;;;;9.88;5.85;;;;;;;;;;5000648;28;20026;-80
2022/03/06 12:46:13;;;;;;;11.68;6.63;;;;;;;;;;4977377;28;20029;-80
2022/03/06 12:48:39;;;;;;;10.75;6.07;;;;;;;;;;4980821;28;20030;-80
2022/03/06 12:51:10;;;;;;;10.13;5.97;;;;;;;;;;5012435;28;20018;-80
2022/03/06 12:53:42;;;;;;;11.73;6.45;;;;;;;;;;4989840;28;20037;-79
2022/03/06 12:56:37;;;;;;;12.57;6.47;;;;;;;;;;4996600;28;20058;-80
2022/03/06 12:59:16;;;;;;;14.60;7.32;;;;;;;;;;4992536;28;20117;-80
2022/03/06 13:01:43;;;;;;;12.45;6.88;;;;;;;;;;4984419;28;20042;-81
2022/03/06 13:04:08;;;;;;;14.32;6.25;;;;;;;;;;4997404;28;20033;-80
2022/03/06 13:06:35;;;;;;;9.52;6.10;;;;;;;;;;4986594;28;20038;-80
2022/03/06 13:09:01;;;;;;;10.13;6.25;;;;;;;;;;4987373;28;20492;-79
2022/03/06 13:11:27;;;;;;;28.65;9.25;;;;;;;;;;5004189;28;20026;-78
2022/03/06 13:14:04;;;;;;;8.45;5.13;;;;;;;;;;4997270;28;20033;-79
2022/03/06 13:16:30;;;;;;;10.65;6.07;;;;;;;;;;4977068;28;20027;-79
2022/03/06 13:19:05;;;;;;;10.00;6.45;;;;;;;;;;5001525;28;20061;-83
2022/03/06 13:21:33;;;;;;;12.02;6.63;;;;;;;;;;5008770;28;20058;-79
2022/03/06 13:24:01;;;;;;;11.98;6.38;;;;;;;;;;5001454;28;20026;-80
2022/03/06 13:26:31;;;;;;;9.10;5.45;;;;;;;;;;5001393;28;20030;-79
2022/03/06 13:28:58;;;;;;;8.85;5.82;;;;;;;;;;5000586;28;20026;-81
2022/03/06 13:31:24;;;;;;;8.88;5.60;;;;;;;;;;5016981;28;20033;-79
2022/03/06 13:34:06;;;;;;;9.20;5.80;;;;;;;;;;4992424;28;20049;-82
2022/03/06 13:36:35;;;;;;;8.85;6.32;;;;;;;;;;4981306;28;20085;-79
2022/03/06 13:39:23;;;;;;;8.80;5.88;;;;;;;;;;4984800;28;20022;-79
2022/03/06 13:41:55;;;;;;;9.23;5.78;;;;;;;;;;4991437;28;20046;-81
2022/03/06 13:44:21;;;;;;;10.32;5.95;;;;;;;;;;4995127;28;20026;-80
2022/03/06 13:46:46;;;;;;;11.48;5.97;;;;;;;;;;4980082;28;20030;-81
2022/03/06 13:49:15;;;;;;;11.93;6.18;;;;;;;;;;4969891;28;20025;-79
2022/03/06 13:51:41;;;;;;;10.23;5.78;;;;;;;;;;4990284;28;20034;-81
2022/03/06 13:54:07;;;;;;;9.77;6.13;;;;;;;;;;4992553;28;20031;-78
2022/03/06 13:56:35;;;;;;;7.68;5.63;;;;;;;;;;5006608;28;20496;-80
2022/03/06 13:59:02;;;;;;;10.48;5.60;;;;;;;;;;5005131;28;20026;-78
2022/03/06 14:01:27;;;;;;;8.32;5.78;;;;;;;;;;4990291;28;20053;-79
2022/03/06 14:03:58;;;;;;;10.75;6.35;;;;;;;;;;4988625;28;20027;-83
2022/03/06 14:06:32;;;;;;;11.23;6.50;;;;;;;;;;5007537;28;20566;-81
2022/03/06 14:08:57;;;;;;;9.50;6.15;;;;;;;;;;4980514;28;20037;-80
2022/03/06 14:11:25;;;;;;;10.85;6.20;;;;;;;;;;4987238;28;20053;-80
2022/03/06 14:13:58;;;;;;;9.43;5.45;;;;;;;;;;4987071;28;20062;-77
2022/03/06 14:16:30;;;;;;;8.85;5.50;;;;;;;;;;5005614;28;20109;-86
2022/03/06 14:18:58;;;;;;;10.02;6.32;;;;;;;;;;4970559;28;20069;-80
2022/03/06 14:21:32;;;;;;;8.75;5.60;;;;;;;;;;5008916;28;20142;-81
2022/03/06 14:24:06;;;;;;;9.15;5.50;;;;;;;;;;4978633;28;20035;-82
2022/03/06 14:26:40;;;;;;;8.27;5.43;;;;;;;;;;4996741;28;20588;-82
2022/03/06 14:29:12;;;;;;;11.65;5.60;;;;;;;;;;4993809;28;20014;-80
2022/03/06 14:31:39;;;;;;;12.57;6.13;;;;;;;;;;5001815;28;20120;-81